Terminal Aerodrome Forecast
Issued by NWS Wilmington, OH

Current Version | Previous Version | Text Only | Print | Product List | Glossary Off
Versions: 1 2 3 4 5 6 7 8 9 10 11 12 13 14 15 16 17 18 19 20 21

000
FTUS41 KILN 202340
TAFCMH
TAF
KCMH 202340Z 2100/2124 22005KT P6SM SCT025 BKN050
     FM210200 17005KT P6SM BKN035 BKN200
     FM210800 18005KT P6SM OVC020
      TEMPO 2110/2113 5SM BR OVC010
     FM211400 19008KT P6SM SCT025 BKN200
     FM211800 19009KT P6SM OVC100=

USA.gov is the U.S. government's official web portal to all federal, state and local government web resources and services.